Weather reports worldwide

Advertisment
Salamanca/Matacan, Spain (8202): temperature & dewpoint: 19.04.2019 14:00:00 - 25.04.2019 14:00:00 (CEST)Salamanca/Matacan, Spain (8202): wind speed & gusts: 19.04.2019 14:00:00 - 25.04.2019 14:00:00 (CEST)Salamanca/Matacan, Spain (8202): wind direction: 19.04.2019 14:00:00 - 25.04.2019 14:00:00 (CEST)Salamanca/Matacan, Spain (8202): visibility: 19.04.2019 14:00:00 - 25.04.2019 14:00:00 (CEST)
Date & Time tt [°C] td [°C] ff [km/h] ff [kn] fx [km/h] fx [kn] dd vv [km]
25.04.2019 14:00:00 10,2 5,0 44 24 - - WSW 20
25.04.2019 13:00:00 9,1 3,0 34 18 - - WSW 10
25.04.2019 12:00:00 7,8 3,7 31 17 - - WSW 10
25.04.2019 11:00:00 5,1 3,2 22 12 - - W 10
25.04.2019 10:00:00 3,9 2,3 34 18 - - W 6
25.04.2019 09:00:00 5,8 3,1 29 16 - - W 10
25.04.2019 08:00:00 4,9 2,1 31 17 - - WSW 17
25.04.2019 07:00:00 5,4 2,4 35 19 - - W 10
25.04.2019 06:00:00 5,5 3,0 31 17 - - W 6
25.04.2019 05:00:00 5,7 3,0 28 15 - - WSW 6
25.04.2019 04:00:00 5,9 3,1 31 17 - - W 6
25.04.2019 03:00:00 6,3 2,2 39 21 - - WSW 6
25.04.2019 02:00:00 6,7 4,2 31 17 - - WSW 6
25.04.2019 01:00:00 7,0 5,0 34 18 - - WSW 6
25.04.2019 00:00:00 7,8 5,8 35 19 - - WSW 4,5
24.04.2019 23:00:00 8,0 6,6 28 15 - - WSW 4,0
24.04.2019 22:00:00 8,4 6,7 31 17 - - WSW 3,6
24.04.2019 21:00:00 9,4 7,3 21 11 - - SW 6
24.04.2019 20:00:00 9,5 7,8 21 11 - - SW 15
24.04.2019 19:00:00 9,9 7,0 41 22 81 44 WSW 10
24.04.2019 18:00:00 11,1 5,9 54 29 93 50 WSW 10
24.04.2019 17:00:00 11,3 8,4 42 23 - - W 10
24.04.2019 16:00:00 13,0 7,8 42 23 - - SW 10
24.04.2019 15:00:00 13,5 8,9 39 21 - - SW 10
24.04.2019 14:00:00 11,1 8,2 44 24 - - SW 5
24.04.2019 13:00:00 11,2 7,6 39 21 - - SW 10
24.04.2019 12:00:00 10,3 6,5 46 25 - - SW 10
24.04.2019 11:00:00 8,9 5,9 41 22 - - SW 15
24.04.2019 10:00:00 7,1 4,9 37 20 - - SSW 10
24.04.2019 09:00:00 4,2 2,5 8 4 - - S 10
24.04.2019 08:00:00 3,4 2,2 15 8 - - S 20
24.04.2019 07:00:00 3,8 2,3 22 12 - - SSW 10
24.04.2019 06:00:00 3,9 1,8 24 13 - - SSW 6
24.04.2019 05:00:00 4,1 2,3 21 11 - - SSW 6
24.04.2019 04:00:00 3,7 2,1 21 11 - - SSW 6
24.04.2019 03:00:00 3,3 2,3 16 9 - - SSW 6
24.04.2019 02:00:00 3,2 1,9 11 6 - - SW 6
24.04.2019 01:00:00 3,9 1,9 15 8 - - WSW 6
24.04.2019 00:00:00 2,9 1,4 11 6 - - W 6
23.04.2019 23:00:00 3,6 1,8 11 6 - - WSW 6
23.04.2019 22:00:00 5,1 3,9 11 6 - - SW 6
23.04.2019 21:00:00 5,7 3,0 18 10 - - W 6
23.04.2019 20:00:00 5,1 3,1 9 5 - - WSW 10
23.04.2019 19:00:00 5,2 2,9 21 11 - - SW 10
23.04.2019 18:00:00 5,7 3,7 28 15 - - NW 6
23.04.2019 17:00:00 7,5 4,3 21 11 - - WSW 12
23.04.2019 16:00:00 5,0 3,7 37 20 - - WSW 4,0
23.04.2019 15:00:00 8,2 4,8 24 13 - - W 10
23.04.2019 14:00:00 7,6 3,8 18 10 - - W 8
23.04.2019 13:00:00 10,0 3,1 13 7 - - SSW 10
23.04.2019 12:00:00 7,6 3,0 16 9 - - SSW 10
23.04.2019 11:00:00 6,1 2,9 22 12 - - WSW 10
23.04.2019 10:00:00 5,5 3,2 13 7 - - W 8
23.04.2019 09:00:00 4,7 2,7 22 12 - - W 10
23.04.2019 08:00:00 5,5 4,3 15 8 - - W 8
23.04.2019 07:00:00 5,6 4,6 5 3 - - WSW 6
23.04.2019 06:00:00 5,6 4,6 13 7 - - WNW 5
23.04.2019 05:00:00 6,0 5,0 15 8 - - WNW 5
23.04.2019 04:00:00 7,0 5,5 26 14 - - W 4,0
23.04.2019 03:00:00 10,8 6,0 24 13 - - WSW 6
23.04.2019 02:00:00 11,1 5,8 26 14 - - SW 6
23.04.2019 01:00:00 11,6 6,1 18 10 - - SW 6
23.04.2019 00:00:00 12,0 8,1 9 5 - - WSW 6
22.04.2019 23:00:00 12,7 6,1 9 5 - - W 6
22.04.2019 22:00:00 13,1 5,7 8 4 - - WSW 6
22.04.2019 21:00:00 14,6 4,1 24 13 - - WSW 7
22.04.2019 20:00:00 15,7 4,1 24 13 - - SW 10
22.04.2019 19:00:00 16,8 5,3 24 13 - - WSW 10
22.04.2019 18:00:00 16,9 5,5 24 13 - - SW 10
22.04.2019 17:00:00 17,6 4,5 24 13 - - SSW 20
22.04.2019 16:00:00 17,9 3,4 15 8 - - W 10
22.04.2019 15:00:00 17,6 3,0 13 7 - - WSW 10
22.04.2019 14:00:00 17,2 5,2 9 5 - - NW 20
22.04.2019 13:00:00 15,9 5,0 8 4 - - W 10
22.04.2019 12:00:00 14,5 3,9 2 1 - - - 10
22.04.2019 11:00:00 12,1 5,3 2 1 - - - 10
22.04.2019 10:00:00 8,7 4,8 0 0 - - N 10
22.04.2019 09:00:00 5,1 3,4 0 0 - - N 10
22.04.2019 08:00:00 2,5 1,6 0 0 - - N 15
22.04.2019 07:00:00 2,9 0,9 0 0 - - N 10
22.04.2019 06:00:00 4,9 3,2 0 0 - - N 5
22.04.2019 05:00:00 6,0 3,8 4 2 - - NW 6
22.04.2019 04:00:00 6,9 4,2 0 0 - - N 6
22.04.2019 03:00:00 7,0 4,3 0 0 - - N 6
22.04.2019 02:00:00 7,8 3,3 0 0 - - N 6
22.04.2019 01:00:00 7,4 2,9 2 1 - - - 6
22.04.2019 00:00:00 8,7 3,1 8 4 - - E 6
21.04.2019 23:00:00 10,0 3,5 8 4 - - E 6
21.04.2019 22:00:00 10,0 2,8 5 3 - - ENE 7
21.04.2019 21:00:00 12,6 3,5 15 8 - - E 6
21.04.2019 20:00:00 13,8 3,3 22 12 - - ENE 10
21.04.2019 19:00:00 14,3 3,7 22 12 - - E 10
21.04.2019 18:00:00 15,6 3,9 26 14 - - E 10
21.04.2019 17:00:00 15,0 3,6 29 16 - - ENE 10
21.04.2019 16:00:00 16,4 3,7 22 12 - - ENE 10
21.04.2019 15:00:00 15,6 3,6 24 13 - - ENE 10
21.04.2019 14:00:00 15,5 3,4 22 12 - - ENE 20
21.04.2019 13:00:00 15,5 3,7 26 14 - - ENE 10
21.04.2019 12:00:00 13,5 3,1 24 13 - - ENE 10
21.04.2019 11:00:00 12,7 4,0 26 14 - - ENE 10
21.04.2019 10:00:00 9,7 4,1 18 10 - - ENE 10
21.04.2019 09:00:00 7,9 3,9 15 8 - - ENE 10
21.04.2019 08:00:00 6,8 3,6 13 7 - - ENE 10
21.04.2019 07:00:00 6,4 3,7 9 5 - - NE 5
21.04.2019 06:00:00 6,6 3,9 5 3 - - NE 6
21.04.2019 05:00:00 6,0 3,2 8 4 - - ENE 6
21.04.2019 04:00:00 8,2 3,8 9 5 - - E 6
21.04.2019 03:00:00 9,8 3,8 13 7 - - E 6
21.04.2019 02:00:00 10,9 4,1 18 10 - - E 6
21.04.2019 01:00:00 12,3 3,5 22 12 - - ENE 6
21.04.2019 00:00:00 13,2 3,0 24 13 - - ENE 7
20.04.2019 23:00:00 14,2 2,7 28 15 - - NE 7
20.04.2019 22:00:00 15,1 2,6 22 12 - - NNE 7
20.04.2019 21:00:00 17,5 3,4 24 13 - - NE 7
20.04.2019 20:00:00 19,8 4,3 26 14 - - NE 10
20.04.2019 19:00:00 20,4 4,7 24 13 - - ENE 10
20.04.2019 18:00:00 22,0 4,6 22 12 - - ENE 10
20.04.2019 17:00:00 21,8 3,4 28 15 - - ENE 15
20.04.2019 16:00:00 21,9 3,7 28 15 - - ENE 10
20.04.2019 15:00:00 21,3 3,5 34 18 - - ENE 10
20.04.2019 14:00:00 20,6 2,2 35 19 - - ENE 15
20.04.2019 13:00:00 19,4 3,1 37 20 - - ENE 10
20.04.2019 12:00:00 17,3 4,6 28 15 - - ENE 10
20.04.2019 11:00:00 15,1 5,7 26 14 - - E 10
20.04.2019 10:00:00 12,7 5,9 21 11 - - ENE 10
20.04.2019 09:00:00 10,2 5,8 24 13 - - ENE 10
20.04.2019 08:00:00 8,8 4,6 13 7 - - E 12
20.04.2019 07:00:00 9,1 4,1 13 7 - - ENE 6
20.04.2019 06:00:00 9,1 4,1 21 11 - - ENE 6
20.04.2019 05:00:00 9,4 4,6 16 9 - - E 6
20.04.2019 04:00:00 10,2 4,6 21 11 - - ENE 6
20.04.2019 03:00:00 10,2 4,8 21 11 - - ENE 6
20.04.2019 02:00:00 10,5 4,8 21 11 - - E 6
20.04.2019 01:00:00 11,3 5,5 26 14 - - E 6
20.04.2019 00:00:00 12,0 5,7 28 15 - - E 6
19.04.2019 23:00:00 12,1 7,0 18 10 - - E 6
19.04.2019 22:00:00 11,8 8,1 5 3 - - E 6
19.04.2019 21:00:00 11,8 7,9 18 10 - - ENE 6
19.04.2019 20:00:00 12,2 7,7 31 17 - - E 10
19.04.2019 19:00:00 13,6 7,0 28 15 - - ENE 10
19.04.2019 18:00:00 15,0 5,8 29 16 - - ENE 10
19.04.2019 17:00:00 15,0 5,1 26 14 - - E 10
19.04.2019 16:00:00 15,7 4,9 24 13 - - E 10
19.04.2019 15:00:00 14,8 5,5 22 12 - - E 10
19.04.2019 14:00:00 13,0 5,6 16 9 - - E 20

tt = temperature
td = dewpoint
ff = wind speed
fx = gusts
dd = wind direction
vv = visibility

Next stations